Time;durP1;ratioP1;P1;durP2;ratioP2;P2;SDS_P1;SDS_P2;PMS_P1;PMS_P2;Temp;Humidity;BMP_temperature;BMP_pressure;BME280_temperature;BME280_humidity;BME280_pressure;Samples;Min_cycle;Max_cycle;Signal;HPM_P1;HPM_P2
2021/08/21 00:01:07;;;;;;;18.73;15.10;;;18.30;93.30;;;;;;5095036;28;20587;-54
2021/08/21 00:03:33;;;;;;;36.95;26.10;;;18.30;93.40;;;;;;5094733;28;20084;-55
2021/08/21 00:05:59;;;;;;;31.42;25.60;;;18.20;93.30;;;;;;5094962;28;20032;-54
2021/08/21 00:08:24;;;;;;;32.72;23.50;;;18.20;93.30;;;;;;5095199;28;20036;-58
2021/08/21 00:10:50;;;;;;;25.40;19.48;;;18.10;93.40;;;;;;5095031;28;20040;-55
2021/08/21 00:13:15;;;;;;;21.23;17.20;;;18.10;93.40;;;;;;5077060;28;20093;-55
2021/08/21 00:15:41;;;;;;;19.63;15.05;;;18.00;93.50;;;;;;5094759;28;20602;-56
2021/08/21 00:18:06;;;;;;;19.35;14.85;;;18.10;93.60;;;;;;5076747;28;20097;-56
2021/08/21 00:20:32;;;;;;;16.85;14.40;;;18.00;93.60;;;;;;5080678;28;20111;-58
2021/08/21 00:22:58;;;;;;;17.88;14.52;;;18.00;93.60;;;;;;5074313;28;20032;-55
2021/08/21 00:25:23;;;;;;;19.08;13.65;;;18.00;93.60;;;;;;5074342;28;20036;-56
2021/08/21 00:27:49;;;;;;;36.75;26.60;;;18.00;93.60;;;;;;5090172;28;20040;-55
2021/08/21 00:30:15;;;;;;;76.35;50.97;;;18.00;93.70;;;;;;5091443;28;20660;-56
2021/08/21 00:32:41;;;;;;;50.90;36.00;;;18.00;93.70;;;;;;5074472;28;20431;-57
2021/08/21 00:35:09;;;;;;;34.63;24.33;;;18.00;93.70;;;;;;5074346;28;20033;-54
2021/08/21 00:37:34;;;;;;;22.80;17.38;;;17.90;93.80;;;;;;5074234;28;20403;-58
2021/08/21 00:40:00;;;;;;;20.10;16.60;;;17.90;93.80;;;;;;5074448;28;20128;-55
2021/08/21 00:42:25;;;;;;;19.90;17.90;;;17.80;93.80;;;;;;5074769;28;20040;-58
2021/08/21 00:44:51;;;;;;;20.30;17.15;;;17.40;93.50;;;;;;5074680;28;20033;-57
2021/08/21 00:47:19;;;;;;;20.45;18.27;;;17.30;93.80;;;;;;5074388;28;20547;-58
2021/08/21 00:49:52;;;;;;;20.83;17.42;;;17.20;93.70;;;;;;5074678;28;20033;-56
2021/08/21 00:52:23;;;;;;;17.35;15.25;;;17.20;94.10;;;;;;5072888;28;20040;-56
2021/08/21 00:54:50;;;;;;;18.35;16.60;;;17.10;94.40;;;;;;5074287;28;20490;-54
2021/08/21 00:57:16;;;;;;;20.85;17.60;;;17.10;94.60;;;;;;5073970;28;20067;-58
2021/08/21 00:59:43;;;;;;;17.77;16.08;;;17.10;94.40;;;;;;5084822;28;20029;-55
2021/08/21 01:02:10;;;;;;;18.42;16.40;;;17.10;94.50;;;;;;5089636;28;20040;-55
2021/08/21 01:04:37;;;;;;;17.45;15.80;;;17.10;94.50;;;;;;5074671;28;20048;-54
2021/08/21 01:07:07;;;;;;;23.25;20.38;;;17.00;94.70;;;;;;5085236;28;20071;-54
2021/08/21 01:09:35;;;;;;;43.28;32.30;;;17.00;94.90;;;;;;5063926;28;20086;-51
2021/08/21 01:12:01;;;;;;;24.38;20.67;;;17.10;94.90;;;;;;5073815;28;20032;-56
2021/08/21 01:14:27;;;;;;;20.20;18.02;;;17.00;94.80;;;;;;5094042;28;20115;-55
2021/08/21 01:16:54;;;;;;;17.30;15.57;;;17.00;94.80;;;;;;5093253;28;20063;-56
2021/08/21 01:19:21;;;;;;;17.83;14.70;;;17.00;94.80;;;;;;5080106;28;20077;-56
2021/08/21 01:21:47;;;;;;;16.40;14.63;;;17.10;94.70;;;;;;5093923;28;20035;-56
2021/08/21 01:24:12;;;;;;;16.08;14.48;;;17.10;94.70;;;;;;5094034;28;20032;-51
2021/08/21 01:27:14;;;;;;;17.02;15.32;;;17.10;94.70;;;;;;5093170;28;20122;-54
2021/08/21 01:29:40;;;;;;;18.20;16.27;;;17.20;94.70;;;;;;5082920;28;20055;-53
2021/08/21 01:32:06;;;;;;;18.67;16.80;;;17.20;94.70;;;;;;5074545;28;20472;-56
2021/08/21 01:34:32;;;;;;;17.85;16.13;;;17.10;94.60;;;;;;5073158;28;20046;-54
2021/08/21 01:36:57;;;;;;;18.58;16.77;;;17.00;94.80;;;;;;5072967;28;20028;-53
2021/08/21 01:39:23;;;;;;;17.40;15.77;;;17.00;94.90;;;;;;5073488;28;20033;-54
2021/08/21 01:41:49;;;;;;;17.83;16.05;;;17.00;94.90;;;;;;5072819;28;20048;-50
2021/08/21 01:44:17;;;;;;;17.60;14.98;;;17.00;94.90;;;;;;5072984;28;20492;-54
2021/08/21 01:46:48;;;;;;;15.88;14.27;;;17.00;94.80;;;;;;5072489;28;20048;-50
2021/08/21 01:49:15;;;;;;;18.17;16.35;;;17.00;95.00;;;;;;5073127;28;20040;-51
2021/08/21 01:51:43;;;;;;;25.38;21.40;;;16.90;95.20;;;;;;5072812;28;20046;-53
2021/08/21 01:54:10;;;;;;;61.47;43.33;;;16.80;95.00;;;;;;5072675;28;20033;-52
2021/08/21 01:56:50;;;;;;;33.38;26.33;;;16.80;95.20;;;;;;5073137;28;20116;-51
2021/08/21 01:59:35;;;;;;;21.35;19.10;;;16.80;95.10;;;;;;5080262;28;20028;-54
2021/08/21 02:02:01;;;;;;;18.75;16.85;;;16.80;95.00;;;;;;5093165;28;20070;-53
2021/08/21 02:04:27;;;;;;;19.10;17.20;;;16.80;95.00;;;;;;5092943;28;20039;-54
2021/08/21 02:06:53;;;;;;;19.13;17.27;;;16.70;95.00;;;;;;5093150;28;20399;-54
2021/08/21 02:09:21;;;;;;;21.38;19.17;;;16.70;95.00;;;;;;5093008;28;20368;-53
2021/08/21 02:11:48;;;;;;;20.13;18.13;;;16.70;94.90;;;;;;5074676;28;20051;-56
2021/08/21 02:14:14;;;;;;;19.67;17.75;;;16.70;94.90;;;;;;5092873;28;20510;-50
2021/08/21 02:16:41;;;;;;;20.48;18.45;;;16.60;95.00;;;;;;5092325;28;20420;-51
2021/08/21 02:19:06;;;;;;;20.05;17.95;;;16.50;95.20;;;;;;5092714;28;20024;-54
2021/08/21 02:21:32;;;;;;;20.95;18.75;;;16.50;95.20;;;;;;5092930;28;20024;-50
2021/08/21 02:23:59;;;;;;;20.70;18.48;;;16.60;95.00;;;;;;5092883;28;20039;-55
2021/08/21 02:26:26;;;;;;;22.50;20.17;;;16.50;94.90;;;;;;5092344;28;20062;-51
2021/08/21 02:28:52;;;;;;;22.88;20.45;;;16.60;94.90;;;;;;5092603;28;20028;-52
2021/08/21 02:31:18;;;;;;;22.15;19.85;;;16.60;94.80;;;;;;5080447;28;20094;-54
2021/08/21 02:33:44;;;;;;;20.48;18.52;;;16.50;94.90;;;;;;5072148;28;20052;-51
2021/08/21 02:36:09;;;;;;;17.80;16.20;;;16.50;95.00;;;;;;5071765;28;20426;-52
2021/08/21 02:38:35;;;;;;;20.40;18.23;;;16.60;95.20;;;;;;5072374;28;20036;-52
2021/08/21 02:41:00;;;;;;;23.80;20.73;;;16.50;95.20;;;;;;5072235;28;20170;-53
2021/08/21 02:43:26;;;;;;;25.75;22.80;;;16.50;95.30;;;;;;5072181;28;20052;-51
2021/08/21 02:45:52;;;;;;;23.00;20.58;;;16.50;95.30;;;;;;5071787;28;20396;-51
2021/08/21 02:48:18;;;;;;;24.42;21.83;;;16.50;95.20;;;;;;5071025;28;20501;-54
2021/08/21 02:50:44;;;;;;;21.50;19.40;;;16.60;94.80;;;;;;5071015;28;20048;-55
2021/08/21 02:53:09;;;;;;;20.63;18.50;;;16.60;95.10;;;;;;5071758;28;20427;-54
2021/08/21 02:55:35;;;;;;;20.25;18.15;;;16.50;95.20;;;;;;5072065;28;20039;-56
2021/08/21 02:58:00;;;;;;;18.50;16.70;;;16.50;95.30;;;;;;5071880;28;20048;-56
2021/08/21 03:00:26;;;;;;;18.83;16.83;;;16.40;95.40;;;;;;5088796;28;20499;-53
2021/08/21 03:02:52;;;;;;;20.90;18.80;;;16.40;95.30;;;;;;5092008;28;20458;-58
2021/08/21 03:05:17;;;;;;;17.88;16.17;;;16.50;95.20;;;;;;5091897;28;20030;-51
2021/08/21 03:07:43;;;;;;;22.38;20.10;;;16.50;95.10;;;;;;5092295;28;20132;-52
2021/08/21 03:10:09;;;;;;;21.00;18.85;;;16.50;95.00;;;;;;5091893;28;20476;-52
2021/08/21 03:12:35;;;;;;;21.10;18.92;;;16.50;95.00;;;;;;5091664;28;20155;-53
2021/08/21 03:15:02;;;;;;;20.98;18.55;;;16.50;95.00;;;;;;5092379;28;20436;-50
2021/08/21 03:17:28;;;;;;;22.17;19.98;;;16.50;95.00;;;;;;5095634;28;20114;-51
2021/08/21 03:19:53;;;;;;;23.13;20.85;;;16.60;95.00;;;;;;5096628;28;20067;-55
2021/08/21 03:22:19;;;;;;;20.55;18.40;;;16.60;94.80;;;;;;5096370;28;20043;-52
2021/08/21 03:24:45;;;;;;;20.15;18.15;;;16.50;95.10;;;;;;5096538;28;20031;-56
2021/08/21 03:27:11;;;;;;;19.92;18.02;;;16.50;95.20;;;;;;5096152;28;20111;-54
2021/08/21 03:29:36;;;;;;;22.02;19.30;;;16.40;95.30;;;;;;5095601;28;20115;-54
2021/08/21 03:32:03;;;;;;;20.98;18.88;;;16.50;95.30;;;;;;5077892;28;20032;-52
2021/08/21 03:34:28;;;;;;;20.65;18.55;;;16.50;95.30;;;;;;5075808;28;20028;-53
2021/08/21 03:36:54;;;;;;;20.75;18.23;;;16.40;95.30;;;;;;5075023;28;20028;-54
2021/08/21 03:39:20;;;;;;;20.52;18.38;;;16.40;95.30;;;;;;5075935;28;20507;-55
2021/08/21 03:41:47;;;;;;;22.52;20.17;;;16.40;95.30;;;;;;5075632;28;20098;-57
2021/08/21 03:44:12;;;;;;;22.23;18.90;;;16.40;95.20;;;;;;5057635;28;20302;-53
2021/08/21 03:46:38;;;;;;;23.75;21.27;;;16.40;95.40;;;;;;5075305;28;20682;-52
2021/08/21 03:49:04;;;;;;;21.90;19.63;;;16.40;95.30;;;;;;5075376;28;20040;-55
2021/08/21 03:51:29;;;;;;;22.20;19.75;;;16.30;95.50;;;;;;5075155;28;20033;-53
2021/08/21 03:53:55;;;;;;;23.50;19.77;;;16.30;95.60;;;;;;5075522;28;20107;-52
2021/08/21 03:56:21;;;;;;;25.00;22.48;;;16.30;95.60;;;;;;5075055;28;20024;-57
2021/08/21 03:58:46;;;;;;;41.50;33.17;;;16.30;95.60;;;;;;5075172;28;20028;-52
2021/08/21 04:01:12;;;;;;;47.85;34.88;;;16.30;95.70;;;;;;5074951;28;20388;-52
2021/08/21 04:03:37;;;;;;;33.55;26.67;;;16.40;95.50;;;;;;5074897;28;20028;-55
2021/08/21 04:06:03;;;;;;;25.98;23.17;;;16.40;95.40;;;;;;5074769;28;20036;-54
2021/08/21 04:08:29;;;;;;;22.95;20.65;;;16.40;95.30;;;;;;5075016;28;20051;-52
2021/08/21 04:10:54;;;;;;;21.83;19.63;;;16.40;95.20;;;;;;5074748;28;20122;-49
2021/08/21 04:13:20;;;;;;;22.05;19.38;;;16.50;95.20;;;;;;5074963;28;20024;-52
2021/08/21 04:15:45;;;;;;;22.33;19.88;;;16.50;95.00;;;;;;5074746;28;20032;-55
2021/08/21 04:18:11;;;;;;;19.38;17.25;;;16.50;95.00;;;;;;5075146;28;20040;-52
2021/08/21 04:20:37;;;;;;;20.45;18.55;;;16.50;94.90;;;;;;5089688;28;20023;-51
2021/08/21 04:23:02;;;;;;;20.70;18.67;;;16.40;94.90;;;;;;5095198;28;20092;-51
2021/08/21 04:25:28;;;;;;;21.30;19.13;;;16.50;95.00;;;;;;5094900;28;20028;-54
2021/08/21 04:27:54;;;;;;;18.95;17.20;;;16.50;95.00;;;;;;5095117;28;20036;-53
2021/08/21 04:30:20;;;;;;;18.98;17.23;;;16.50;95.00;;;;;;5090807;28;20523;-55
2021/08/21 04:32:45;;;;;;;20.52;18.08;;;16.60;95.00;;;;;;5074589;28;20036;-53
2021/08/21 04:35:11;;;;;;;21.35;19.25;;;16.60;94.90;;;;;;5074728;28;20088;-54
2021/08/21 04:37:36;;;;;;;19.40;17.48;;;16.60;95.00;;;;;;5074415;28;20074;-50
2021/08/21 04:40:05;;;;;;;18.27;16.55;;;16.60;95.00;;;;;;5074592;28;20388;-56
2021/08/21 04:42:30;;;;;;;22.13;19.77;;;16.60;95.00;;;;;;5074418;28;20047;-56
2021/08/21 04:44:59;;;;;;;21.48;19.20;;;16.60;94.90;;;;;;5074884;28;20036;-56
2021/08/21 04:47:28;;;;;;;20.63;18.63;;;16.60;95.00;;;;;;5074483;28;20066;-56
2021/08/21 04:49:55;;;;;;;21.00;18.90;;;16.50;95.00;;;;;;5055915;28;20626;-51
2021/08/21 04:52:22;;;;;;;26.38;21.80;;;16.50;94.90;;;;;;5073744;28;20499;-52
2021/08/21 04:54:49;;;;;;;45.47;34.65;;;16.50;95.00;;;;;;5074443;28;20024;-52
2021/08/21 04:57:15;;;;;;;36.72;31.13;;;16.40;95.00;;;;;;5073723;28;20679;-52
2021/08/21 04:59:40;;;;;;;27.77;23.00;;;16.40;95.10;;;;;;5084816;28;20036;-56
2021/08/21 05:02:06;;;;;;;24.15;21.50;;;16.50;95.10;;;;;;5094348;28;20035;-52
2021/08/21 05:04:31;;;;;;;24.08;21.65;;;16.40;95.10;;;;;;5094347;28;20051;-51
2021/08/21 05:06:57;;;;;;;24.20;21.88;;;16.40;95.50;;;;;;5093477;28;20039;-57
2021/08/21 05:09:23;;;;;;;23.63;21.15;;;16.40;95.10;;;;;;5075873;28;20039;-57
2021/08/21 05:11:48;;;;;;;26.98;24.15;;;16.40;95.20;;;;;;5093658;28;20123;-52
2021/08/21 05:14:14;;;;;;;24.55;21.95;;;16.40;94.90;;;;;;5094190;28;20153;-54
2021/08/21 05:16:46;;;;;;;21.60;19.50;;;16.40;94.80;;;;;;5093407;28;20039;-54
2021/08/21 05:19:25;;;;;;;23.45;21.20;;;16.40;94.90;;;;;;5094175;28;20040;-57
2021/08/21 05:21:55;;;;;;;23.67;19.95;;;16.50;94.80;;;;;;5094295;28;20032;-57
2021/08/21 05:24:20;;;;;;;22.10;20.02;;;16.60;94.80;;;;;;5094351;28;20055;-54
2021/08/21 05:26:47;;;;;;;21.30;19.23;;;16.60;94.70;;;;;;5093584;28;20475;-51
2021/08/21 05:29:14;;;;;;;20.83;18.77;;;16.60;94.70;;;;;;5075828;28;20062;-50
2021/08/21 05:31:39;;;;;;;22.45;20.35;;;16.60;94.70;;;;;;5082989;28;20056;-57
2021/08/21 05:34:05;;;;;;;24.63;22.15;;;16.70;94.70;;;;;;5089361;28;20039;-52
2021/08/21 05:36:31;;;;;;;21.35;19.25;;;16.70;94.70;;;;;;5093000;28;20024;-55
2021/08/21 05:39:17;;;;;;;23.27;20.45;;;16.70;94.60;;;;;;5092920;28;20499;-54
2021/08/21 05:42:10;;;;;;;20.35;18.25;;;16.70;94.60;;;;;;5093611;28;20076;-52
2021/08/21 05:44:56;;;;;;;21.45;19.35;;;16.70;94.50;;;;;;5093449;28;20028;-51
2021/08/21 05:47:23;;;;;;;23.42;20.25;;;16.70;94.50;;;;;;5091522;28;20503;-54
2021/08/21 05:49:49;;;;;;;22.08;19.95;;;16.90;94.30;;;;;;5082070;28;20127;-53
2021/08/21 05:52:14;;;;;;;25.35;20.60;;;16.90;94.20;;;;;;5072978;28;20037;-54
2021/08/21 05:54:40;;;;;;;21.27;19.00;;;16.90;94.00;;;;;;5072738;28;20056;-54
2021/08/21 05:57:05;;;;;;;21.75;19.58;;;16.90;94.00;;;;;;5054831;28;20020;-51
2021/08/21 05:59:31;;;;;;;21.27;19.17;;;17.00;93.90;;;;;;5082521;28;20368;-51
2021/08/21 06:01:58;;;;;;;20.75;18.60;;;17.10;93.90;;;;;;5093327;28;20135;-52
2021/08/21 06:04:25;;;;;;;22.63;19.98;;;17.20;93.80;;;;;;5093483;28;20032;-55
2021/08/21 06:06:50;;;;;;;28.70;24.90;;;17.30;93.70;;;;;;5092713;28;20404;-54
2021/08/21 06:09:20;;;;;;;21.77;19.58;;;17.50;93.70;;;;;;5093285;28;20574;-52
2021/08/21 06:11:45;;;;;;;20.02;18.02;;;17.50;93.60;;;;;;5093012;28;20032;-53
2021/08/21 06:14:11;;;;;;;30.90;27.70;;;17.60;93.60;;;;;;5092877;28;20026;-56
2021/08/21 06:16:36;;;;;;;25.63;22.88;;;17.70;93.40;;;;;;5092773;28;20036;-54
2021/08/21 06:19:02;;;;;;;20.95;18.85;;;17.60;93.60;;;;;;5092594;28;20483;-54
2021/08/21 06:21:28;;;;;;;21.17;18.95;;;17.70;93.50;;;;;;5092959;28;20395;-53
2021/08/21 06:23:53;;;;;;;21.13;18.85;;;17.70;93.40;;;;;;5092896;28;20036;-50
2021/08/21 06:26:19;;;;;;;26.38;18.35;;;17.70;93.30;;;;;;5080927;28;20039;-56
2021/08/21 06:28:44;;;;;;;21.48;19.30;;;17.60;93.70;;;;;;5072511;28;20041;-55
2021/08/21 06:31:10;;;;;;;19.73;17.83;;;17.40;93.80;;;;;;5078174;28;20079;-56
2021/08/21 06:33:36;;;;;;;20.98;18.85;;;17.40;94.10;;;;;;5092583;28;20028;-53
2021/08/21 06:36:01;;;;;;;20.17;18.05;;;17.40;93.70;;;;;;5092253;28;20063;-52
2021/08/21 06:38:27;;;;;;;22.10;18.52;;;17.40;93.70;;;;;;5092630;28;20038;-52
2021/08/21 06:40:52;;;;;;;21.90;19.08;;;17.30;94.30;;;;;;5092287;28;20039;-54
2021/08/21 06:43:18;;;;;;;19.55;17.67;;;17.00;94.60;;;;;;5092622;28;20028;-52
2021/08/21 06:45:44;;;;;;;19.00;17.10;;;17.20;94.60;;;;;;5092267;28;20043;-50
2021/08/21 06:48:11;;;;;;;19.88;17.75;;;17.50;94.40;;;;;;5092319;28;20357;-55
2021/08/21 06:50:37;;;;;;;23.20;18.85;;;17.70;94.00;;;;;;5091590;28;20032;-55
2021/08/21 06:53:03;;;;;;;19.95;17.70;;;17.70;93.90;;;;;;5091881;28;20039;-54
2021/08/21 06:55:32;;;;;;;20.02;17.95;;;17.80;94.00;;;;;;5091845;28;20032;-53
2021/08/21 06:57:58;;;;;;;21.38;19.15;;;17.70;93.80;;;;;;5092333;28;20036;-56
2021/08/21 07:00:24;;;;;;;20.90;18.65;;;17.60;94.20;;;;;;5091651;28;20032;-54
2021/08/21 07:02:49;;;;;;;21.25;19.08;;;17.60;94.40;;;;;;5074236;28;20125;-54
2021/08/21 07:05:15;;;;;;;21.52;19.38;;;17.70;94.10;;;;;;5091841;28;20487;-53
2021/08/21 07:07:40;;;;;;;20.50;18.35;;;17.70;94.20;;;;;;5091980;28;20062;-54
2021/08/21 07:10:07;;;;;;;20.98;18.52;;;17.80;93.90;;;;;;5092043;28;20021;-56
2021/08/21 07:12:32;;;;;;;19.80;17.73;;;17.90;93.80;;;;;;5091723;28;20090;-52
2021/08/21 07:14:58;;;;;;;20.27;17.98;;;18.00;93.80;;;;;;5092407;28;20397;-55
2021/08/21 07:17:24;;;;;;;21.58;16.98;;;18.20;93.70;;;;;;5091172;28;20043;-57
2021/08/21 07:19:50;;;;;;;18.67;15.75;;;18.20;93.50;;;;;;5080874;28;20039;-52
2021/08/21 07:22:15;;;;;;;18.02;15.65;;;18.30;93.40;;;;;;5088272;28;20040;-54
2021/08/21 07:24:42;;;;;;;21.63;14.90;;;18.40;93.10;;;;;;5091516;28;20469;-54
2021/08/21 07:27:08;;;;;;;16.00;14.07;;;18.50;93.00;;;;;;5076838;28;20037;-54
2021/08/21 07:29:33;;;;;;;17.92;15.32;;;18.80;92.90;;;;;;5079572;28;20499;-56
2021/08/21 07:31:59;;;;;;;17.95;16.10;;;19.00;92.40;;;;;;5081951;28;20020;-51
2021/08/21 07:34:25;;;;;;;15.10;13.20;;;19.10;92.20;;;;;;5081777;28;20032;-57
2021/08/21 07:36:50;;;;;;;16.48;14.77;;;19.20;92.10;;;;;;5076737;28;20036;-57
2021/08/21 07:39:16;;;;;;;18.40;15.95;;;19.30;91.90;;;;;;5079423;28;20071;-54
2021/08/21 07:41:42;;;;;;;15.48;13.50;;;19.20;92.10;;;;;;5083567;28;20099;-55
2021/08/21 07:44:08;;;;;;;17.77;15.50;;;19.40;92.10;;;;;;5074425;28;20050;-52
2021/08/21 07:46:33;;;;;;;20.02;14.32;;;19.30;92.20;;;;;;5053176;28;20032;-55
2021/08/21 07:48:59;;;;;;;16.10;14.40;;;19.50;92.30;;;;;;5071076;28;20036;-54
2021/08/21 07:51:25;;;;;;;18.02;14.52;;;19.70;91.90;;;;;;5071322;28;20060;-57
2021/08/21 07:53:50;;;;;;;15.68;13.73;;;19.70;91.80;;;;;;5084988;28;20024;-58
2021/08/21 07:56:16;;;;;;;18.92;14.90;;;19.80;91.80;;;;;;5084667;28;20036;-60
2021/08/21 07:58:41;;;;;;;20.27;14.05;;;19.90;91.60;;;;;;5064398;28;20041;-63
2021/08/21 08:01:08;;;;;;;15.95;13.60;;;20.10;91.40;;;;;;5063693;28;20032;-62
2021/08/21 08:03:33;;;;;;;13.60;12.20;;;20.10;91.70;;;;;;5085455;28;20044;-58
2021/08/21 08:05:59;;;;;;;16.38;14.55;;;20.20;91.50;;;;;;5084137;28;20040;-58
2021/08/21 08:08:25;;;;;;;17.17;14.70;;;20.20;91.50;;;;;;5086662;28;20480;-56
2021/08/21 08:10:53;;;;;;;15.43;13.75;;;20.20;91.50;;;;;;5079418;28;20033;-59
2021/08/21 08:13:19;;;;;;;15.80;14.20;;;20.20;91.60;;;;;;5083169;28;20036;-56
2021/08/21 08:15:45;;;;;;;17.23;13.70;;;20.20;91.90;;;;;;5083147;28;20059;-58
2021/08/21 08:18:11;;;;;;;14.90;12.90;;;20.10;92.10;;;;;;5094217;28;20020;-52
2021/08/21 08:20:37;;;;;;;16.17;14.23;;;20.30;91.80;;;;;;5086009;28;20044;-54
2021/08/21 08:23:03;;;;;;;13.93;12.50;;;20.30;91.70;;;;;;5076281;28;20028;-51
2021/08/21 08:25:29;;;;;;;13.95;12.40;;;20.10;91.90;;;;;;5075139;28;20036;-54
2021/08/21 08:27:54;;;;;;;16.63;13.55;;;20.20;91.70;;;;;;5087796;28;20128;-53
2021/08/21 08:30:20;;;;;;;18.05;14.15;;;20.30;91.50;;;;;;5091371;28;20052;-56
2021/08/21 08:32:45;;;;;;;15.35;13.15;;;20.30;91.40;;;;;;5074104;28;20098;-55
2021/08/21 08:35:12;;;;;;;14.25;12.85;;;20.60;91.10;;;;;;5074713;28;20415;-54
2021/08/21 08:37:39;;;;;;;15.48;13.95;;;20.60;91.10;;;;;;5074458;28;20552;-53
2021/08/21 08:40:06;;;;;;;17.30;14.15;;;20.60;90.90;;;;;;5074803;28;20519;-52
2021/08/21 08:42:32;;;;;;;17.98;14.75;;;20.70;90.80;;;;;;5056630;28;20036;-55
2021/08/21 08:44:58;;;;;;;13.55;12.00;;;20.70;90.90;;;;;;5074905;28;20455;-52
2021/08/21 08:47:23;;;;;;;12.80;11.50;;;20.90;90.70;;;;;;5074538;28;20043;-52
2021/08/21 08:49:50;;;;;;;16.67;12.65;;;21.10;90.60;;;;;;5068629;28;20032;-53
2021/08/21 08:52:16;;;;;;;15.68;14.00;;;21.10;90.50;;;;;;5084098;28;20032;-50
2021/08/21 08:54:42;;;;;;;15.30;13.20;;;21.20;90.40;;;;;;5067568;28;20027;-61
2021/08/21 08:57:08;;;;;;;14.80;12.82;;;21.30;90.30;;;;;;5086029;28;20024;-51
2021/08/21 08:59:34;;;;;;;13.82;12.48;;;21.40;89.60;;;;;;5086680;28;20403;-57
2021/08/21 09:02:00;;;;;;;13.18;11.88;;;21.70;88.80;;;;;;5084626;28;20071;-56
2021/08/21 09:04:27;;;;;;;12.75;11.45;;;21.70;88.40;;;;;;5088924;28;20124;-56
2021/08/21 09:06:53;;;;;;;13.90;12.60;;;21.60;88.40;;;;;;5079388;28;20032;-52
2021/08/21 09:09:25;;;;;;;16.00;13.80;;;21.90;87.90;;;;;;5068451;28;20036;-52
2021/08/21 09:11:53;;;;;;;14.43;12.85;;;22.00;87.50;;;;;;5077270;28;20042;-55
2021/08/21 09:14:29;;;;;;;19.30;14.93;;;22.20;87.00;;;;;;5087588;28;20028;-54
2021/08/21 09:17:14;;;;;;;16.02;14.10;;;22.10;86.50;;;;;;5086937;28;20039;-56
2021/08/21 09:19:40;;;;;;;18.85;14.25;;;22.00;86.50;;;;;;5082660;28;20052;-62
2021/08/21 09:22:07;;;;;;;19.75;15.30;;;21.90;86.60;;;;;;5083583;28;20059;-55
2021/08/21 09:24:34;;;;;;;16.25;13.10;;;22.00;86.70;;;;;;5084470;28;20033;-51
2021/08/21 09:27:21;;;;;;;18.15;14.73;;;22.10;87.00;;;;;;5078286;28;20028;-54
2021/08/21 09:30:17;;;;;;;15.65;13.95;;;22.20;86.30;;;;;;5083658;28;20090;-51
2021/08/21 09:32:43;;;;;;;15.32;13.80;;;22.20;86.10;;;;;;5087999;28;20031;-55
2021/08/21 09:35:12;;;;;;;15.80;14.10;;;22.30;85.60;;;;;;5081879;28;20612;-54
2021/08/21 09:37:50;;;;;;;16.33;12.32;;;22.40;85.40;;;;;;5080325;28;20052;-54
2021/08/21 09:40:25;;;;;;;15.65;12.70;;;22.60;85.60;;;;;;5081646;28;20070;-53
2021/08/21 09:42:50;;;;;;;;;;;22.70;85.60;;;;;;5081281;28;20028;-53
2021/08/21 09:45:20;;;;;;;15.00;13.45;;;22.70;85.00;;;;;;5057175;28;19909;-54
2021/08/21 09:47:46;;;;;;;15.65;13.07;;;22.60;85.00;;;;;;5088534;28;20069;-55
2021/08/21 09:50:15;;;;;;;14.02;12.63;;;22.80;84.60;;;;;;5086450;28;20032;-56
2021/08/21 09:52:42;;;;;;;13.93;12.43;;;22.90;83.70;;;;;;5081463;28;20118;-49
2021/08/21 09:55:14;;;;;;;13.63;12.32;;;22.90;84.60;;;;;;5081564;28;20384;-54
2021/08/21 09:57:40;;;;;;;17.88;12.77;;;23.00;83.60;;;;;;5084877;28;20138;-54
2021/08/21 10:00:06;;;;;;;14.10;12.60;;;23.20;83.30;;;;;;5087579;28;20114;-54
2021/08/21 10:02:33;;;;;;;15.32;13.38;;;23.30;83.40;;;;;;5080886;28;20029;-56
2021/08/21 10:04:59;;;;;;;13.90;12.50;;;23.50;82.30;;;;;;5085099;28;20033;-54
2021/08/21 10:07:34;;;;;;;14.02;12.18;;;23.50;82.50;;;;;;5064773;28;20125;-55
2021/08/21 10:10:07;;;;;;;12.95;11.63;;;23.60;82.20;;;;;;5083944;28;20024;-54
2021/08/21 10:12:35;;;;;;;12.15;10.95;;;23.60;81.80;;;;;;5057166;28;20050;-51
2021/08/21 10:15:03;;;;;;;11.25;10.02;;;23.80;82.10;;;;;;5054873;28;20049;-52
2021/08/21 10:17:31;;;;;;;14.32;11.63;;;24.10;79.10;;;;;;5083286;28;20016;-53
2021/08/21 10:19:57;;;;;;;12.45;11.05;;;24.10;79.30;;;;;;5083853;28;20032;-59
2021/08/21 10:22:27;;;;;;;13.32;10.10;;;24.00;80.00;;;;;;5073348;28;20498;-55
2021/08/21 10:24:53;;;;;;;10.98;9.35;;;24.10;79.70;;;;;;5089484;28;20082;-49
2021/08/21 10:27:39;;;;;;;10.35;9.25;;;24.10;80.00;;;;;;5080630;28;20037;-53
2021/08/21 10:30:07;;;;;;;16.02;10.52;;;24.30;80.40;;;;;;5082409;28;20067;-53
2021/08/21 10:32:37;;;;;;;16.98;12.30;;;24.30;79.80;;;;;;5058930;28;20041;-56
2021/08/21 10:35:04;;;;;;;12.73;11.38;;;24.00;80.50;;;;;;5072964;28;20408;-51
2021/08/21 10:37:43;;;;;;;12.23;10.10;;;24.00;79.60;;;;;;5073453;28;20173;-53
2021/08/21 10:40:27;;;;;;;11.70;10.52;;;24.40;78.50;;;;;;5085004;28;20028;-54
2021/08/21 10:42:57;;;;;;;10.93;9.82;;;24.40;78.30;;;;;;5089719;28;20040;-51
2021/08/21 10:45:43;;;;;;;10.85;9.07;;;24.10;79.10;;;;;;5072321;28;20476;-54
2021/08/21 10:48:26;;;;;;;15.35;9.73;;;24.50;78.50;;;;;;5072346;28;20051;-54
2021/08/21 10:50:52;;;;;;;10.77;9.57;;;24.40;78.20;;;;;;5072214;28;20017;-52
2021/08/21 10:53:22;;;;;;;10.75;7.82;;;24.10;78.00;;;;;;5072252;28;20031;-53
2021/08/21 10:55:48;;;;;;;10.43;8.07;;;24.20;78.50;;;;;;5071842;28;20031;-54
2021/08/21 10:58:19;;;;;;;8.82;7.10;;;24.30;77.90;;;;;;5091329;28;20036;-53
2021/08/21 11:00:46;;;;;;;8.13;7.30;;;24.60;76.50;;;;;;5092552;28;20047;-53
2021/08/21 11:03:33;;;;;;;9.45;7.70;;;24.70;76.80;;;;;;5092898;28;20501;-56
2021/08/21 11:06:05;;;;;;;12.40;9.77;;;24.70;76.10;;;;;;5077923;28;20475;-54
2021/08/21 11:08:33;;;;;;;8.98;8.07;;;24.80;74.80;;;;;;5091914;28;20024;-52
2021/08/21 11:11:07;;;;;;;7.80;7.00;;;24.80;74.70;;;;;;5091655;28;20031;-54
2021/08/21 11:16:51;;;;;;;7.55;6.30;;;25.10;73.50;;;;;;5089493;28;20032;-53
2021/08/21 11:19:25;;;;;;;6.50;5.85;;;24.70;73.80;;;;;;5075639;28;20021;-54
2021/08/21 11:22:10;;;;;;;7.05;6.03;;;24.70;74.60;;;;;;5074167;28;20027;-54
2021/08/21 11:24:38;;;;;;;6.32;5.40;;;24.80;74.00;;;;;;5092724;28;20055;-55
2021/08/21 11:27:22;;;;;;;5.90;5.30;;;25.00;72.40;;;;;;5091950;28;20638;-53
2021/08/21 11:30:12;;;;;;;5.03;4.53;;;24.80;72.80;;;;;;5091952;28;20607;-56
2021/08/21 11:32:51;;;;;;;6.15;5.55;;;24.80;72.60;;;;;;5092106;28;20127;-54
2021/08/21 11:35:38;;;;;;;6.25;5.57;;;24.80;72.90;;;;;;5091758;28;20448;-54
2021/08/21 11:38:09;;;;;;;6.25;4.95;;;24.90;73.20;;;;;;5094839;28;20016;-55
2021/08/21 11:40:47;;;;;;;6.07;5.03;;;25.00;72.50;;;;;;5096017;28;20040;-54
2021/08/21 11:43:14;;;;;;;6.47;4.75;;;25.00;72.80;;;;;;5096283;28;20028;-55
2021/08/21 11:45:41;;;;;;;4.78;4.38;;;25.20;70.40;;;;;;5095269;28;20416;-56
2021/08/21 11:48:09;;;;;;;5.00;4.38;;;25.20;70.90;;;;;;5096590;28;20399;-56
2021/08/21 11:50:38;;;;;;;5.85;4.57;;;25.30;70.00;;;;;;5097253;28;20503;-56
2021/08/21 11:53:09;;;;;;;4.85;4.40;;;25.30;69.70;;;;;;5096465;28;20043;-56
2021/08/21 11:55:36;;;;;;;8.52;5.30;;;25.30;69.90;;;;;;5096036;28;20062;-57
2021/08/21 11:58:04;;;;;;;4.70;4.30;;;25.20;69.20;;;;;;5096644;28;20506;-55
2021/08/21 12:00:32;;;;;;;4.95;4.22;;;25.20;69.20;;;;;;5095354;28;20031;-56
2021/08/21 12:03:08;;;;;;;6.13;4.90;;;25.40;69.20;;;;;;5095280;28;20032;-56
2021/08/21 12:05:53;;;;;;;4.45;4.05;;;25.60;68.80;;;;;;5095064;28;20024;-55
2021/08/21 12:08:25;;;;;;;4.43;4.03;;;25.60;68.40;;;;;;5095280;28;20055;-55
2021/08/21 12:11:02;;;;;;;6.25;4.20;;;25.70;67.40;;;;;;5095441;28;20031;-57
2021/08/21 12:13:31;;;;;;;5.93;4.55;;;25.40;68.00;;;;;;5095038;28;20039;-55
2021/08/21 12:16:04;;;;;;;4.80;4.20;;;25.20;68.50;;;;;;5094843;28;20017;-57
2021/08/21 12:18:33;;;;;;;4.88;4.18;;;25.20;68.90;;;;;;5095362;28;20040;-53
2021/08/21 12:20:59;;;;;;;4.78;4.20;;;25.40;68.80;;;;;;5095200;28;20400;-56
2021/08/21 12:23:25;;;;;;;4.80;4.18;;;25.60;67.40;;;;;;5095317;28;20585;-57
2021/08/21 12:25:55;;;;;;;4.57;3.58;;;25.60;67.50;;;;;;5095851;28;20036;-54
2021/08/21 12:28:36;;;;;;;4.22;3.60;;;25.50;66.60;;;;;;5077716;28;20067;-54
2021/08/21 12:31:08;;;;;;;3.65;3.33;;;25.30;66.30;;;;;;5086462;28;20131;-54
2021/08/21 12:33:57;;;;;;;5.50;3.70;;;25.30;66.80;;;;;;5075088;28;20090;-53
2021/08/21 12:36:24;;;;;;;5.00;3.75;;;25.30;66.50;;;;;;5062827;28;20492;-56
2021/08/21 12:39:07;;;;;;;5.50;4.30;;;25.60;65.80;;;;;;5086490;28;20032;-57